sensor_id;sensor_type;location;lat;lon;timestamp;temperature;humidity
41262;DHT22;29629;52.532;13.352;2022-10-16T00:00:30;15.90;99.90
41262;DHT22;29629;52.532;13.352;2022-10-16T00:02:57;15.80;99.90
41262;DHT22;29629;52.532;13.352;2022-10-16T00:05:23;15.80;99.90
41262;DHT22;29629;52.532;13.352;2022-10-16T00:07:52;15.80;99.90
41262;DHT22;29629;52.532;13.352;2022-10-16T00:10:18;15.80;99.90
41262;DHT22;29629;52.532;13.352;2022-10-16T00:12:45;15.80;99.90
41262;DHT22;29629;52.532;13.352;2022-10-16T00:15:12;15.80;99.90
41262;DHT22;29629;52.532;13.352;2022-10-16T00:17:39;15.80;99.90
41262;DHT22;29629;52.532;13.352;2022-10-16T00:20:07;15.80;99.90
41262;DHT22;29629;52.532;13.352;2022-10-16T00:22:34;15.80;99.90
41262;DHT22;29629;52.532;13.352;2022-10-16T00:25:02;15.80;99.90
41262;DHT22;29629;52.532;13.352;2022-10-16T00:27:29;15.70;99.90
41262;DHT22;29629;52.532;13.352;2022-10-16T00:29:56;15.90;99.90
41262;DHT22;29629;52.532;13.352;2022-10-16T00:32:22;15.90;99.90
41262;DHT22;29629;52.532;13.352;2022-10-16T00:34:49;15.90;99.90
41262;DHT22;29629;52.532;13.352;2022-10-16T00:37:16;15.90;99.90
41262;DHT22;29629;52.532;13.352;2022-10-16T00:39:43;15.90;99.90
41262;DHT22;29629;52.532;13.352;2022-10-16T00:42:14;15.90;99.90
41262;DHT22;29629;52.532;13.352;2022-10-16T00:44:44;15.90;99.90
41262;DHT22;29629;52.532;13.352;2022-10-16T00:47:15;15.80;99.90
41262;DHT22;29629;52.532;13.352;2022-10-16T00:49:43;15.90;99.90
41262;DHT22;29629;52.532;13.352;2022-10-16T00:52:10;15.90;99.90
41262;DHT22;29629;52.532;13.352;2022-10-16T00:54:38;15.90;99.90
41262;DHT22;29629;52.532;13.352;2022-10-16T00:57:06;15.90;99.90
41262;DHT22;29629;52.532;13.352;2022-10-16T00:59:36;15.90;99.90
41262;DHT22;29629;52.532;13.352;2022-10-16T01:02:08;15.90;99.90
41262;DHT22;29629;52.532;13.352;2022-10-16T01:04:38;15.80;99.90
41262;DHT22;29629;52.532;13.352;2022-10-16T01:07:12;15.80;99.90
41262;DHT22;29629;52.532;13.352;2022-10-16T01:09:50;15.80;99.90
41262;DHT22;29629;52.532;13.352;2022-10-16T01:12:25;15.80;99.90
41262;DHT22;29629;52.532;13.352;2022-10-16T01:14:58;15.80;99.90
41262;DHT22;29629;52.532;13.352;2022-10-16T01:17:29;15.70;99.90
41262;DHT22;29629;52.532;13.352;2022-10-16T01:20:10;15.80;99.90
41262;DHT22;29629;52.532;13.352;2022-10-16T01:23:02;15.80;99.90
41262;DHT22;29629;52.532;13.352;2022-10-16T01:25:39;15.80;99.90
41262;DHT22;29629;52.532;13.352;2022-10-16T01:28:12;15.80;99.90
41262;DHT22;29629;52.532;13.352;2022-10-16T01:30:42;15.70;99.90
41262;DHT22;29629;52.532;13.352;2022-10-16T01:33:16;15.80;99.90
41262;DHT22;29629;52.532;13.352;2022-10-16T01:35:47;15.80;99.90
41262;DHT22;29629;52.532;13.352;2022-10-16T01:38:19;15.80;99.90
41262;DHT22;29629;52.532;13.352;2022-10-16T01:40:50;15.80;99.90
41262;DHT22;29629;52.532;13.352;2022-10-16T01:43:22;15.80;99.90
41262;DHT22;29629;52.532;13.352;2022-10-16T01:45:52;15.80;99.90
41262;DHT22;29629;52.532;13.352;2022-10-16T01:48:20;15.80;99.90
41262;DHT22;29629;52.532;13.352;2022-10-16T01:50:52;15.80;99.90
41262;DHT22;29629;52.532;13.352;2022-10-16T01:53:24;15.80;99.90
41262;DHT22;29629;52.532;13.352;2022-10-16T01:55:52;15.80;99.90
41262;DHT22;29629;52.532;13.352;2022-10-16T01:58:22;15.80;99.90
41262;DHT22;29629;52.532;13.352;2022-10-16T02:00:51;15.80;99.90
41262;DHT22;29629;52.532;13.352;2022-10-16T02:03:20;15.80;99.90
41262;DHT22;29629;52.532;13.352;2022-10-16T02:05:50;15.80;99.90
41262;DHT22;29629;52.532;13.352;2022-10-16T02:08:18;15.80;99.90
41262;DHT22;29629;52.532;13.352;2022-10-16T02:10:45;15.80;99.90
41262;DHT22;29629;52.532;13.352;2022-10-16T02:13:14;15.80;99.90
41262;DHT22;29629;52.532;13.352;2022-10-16T02:15:44;15.70;99.90
41262;DHT22;29629;52.532;13.352;2022-10-16T02:18:11;15.70;99.90
41262;DHT22;29629;52.532;13.352;2022-10-16T02:20:44;15.70;99.90
41262;DHT22;29629;52.532;13.352;2022-10-16T02:23:18;15.80;99.90
41262;DHT22;29629;52.532;13.352;2022-10-16T02:25:47;15.80;99.90
41262;DHT22;29629;52.532;13.352;2022-10-16T02:28:18;15.80;99.90
41262;DHT22;29629;52.532;13.352;2022-10-16T02:30:50;15.70;99.90
41262;DHT22;29629;52.532;13.352;2022-10-16T02:33:19;15.70;99.90
41262;DHT22;29629;52.532;13.352;2022-10-16T02:35:49;15.70;99.90
41262;DHT22;29629;52.532;13.352;2022-10-16T02:38:18;15.70;99.90
41262;DHT22;29629;52.532;13.352;2022-10-16T02:40:45;15.70;99.90
41262;DHT22;29629;52.532;13.352;2022-10-16T02:43:13;15.70;99.90
41262;DHT22;29629;52.532;13.352;2022-10-16T02:45:40;15.70;99.90
41262;DHT22;29629;52.532;13.352;2022-10-16T02:48:08;15.70;99.90
41262;DHT22;29629;52.532;13.352;2022-10-16T02:50:35;15.70;99.90
41262;DHT22;29629;52.532;13.352;2022-10-16T02:53:02;15.70;99.90
41262;DHT22;29629;52.532;13.352;2022-10-16T02:55:28;15.70;99.90
41262;DHT22;29629;52.532;13.352;2022-10-16T02:57:55;15.70;99.90
41262;DHT22;29629;52.532;13.352;2022-10-16T03:00:22;15.60;99.90
41262;DHT22;29629;52.532;13.352;2022-10-16T03:02:49;15.50;99.90
41262;DHT22;29629;52.532;13.352;2022-10-16T03:05:18;15.60;99.90
41262;DHT22;29629;52.532;13.352;2022-10-16T03:07:44;15.60;99.90
41262;DHT22;29629;52.532;13.352;2022-10-16T03:10:11;15.50;99.90
41262;DHT22;29629;52.532;13.352;2022-10-16T03:12:38;15.50;99.90
41262;DHT22;29629;52.532;13.352;2022-10-16T03:15:06;15.50;99.90
41262;DHT22;29629;52.532;13.352;2022-10-16T03:17:33;15.50;99.90
41262;DHT22;29629;52.532;13.352;2022-10-16T03:20:00;15.50;99.90
41262;DHT22;29629;52.532;13.352;2022-10-16T03:22:28;15.50;99.90
41262;DHT22;29629;52.532;13.352;2022-10-16T03:24:55;15.40;99.90
41262;DHT22;29629;52.532;13.352;2022-10-16T03:27:22;15.40;99.90
41262;DHT22;29629;52.532;13.352;2022-10-16T03:29:48;15.40;99.90
41262;DHT22;29629;52.532;13.352;2022-10-16T03:32:15;15.30;99.90
41262;DHT22;29629;52.532;13.352;2022-10-16T03:34:42;15.30;99.90
41262;DHT22;29629;52.532;13.352;2022-10-16T03:37:09;15.30;99.90
41262;DHT22;29629;52.532;13.352;2022-10-16T03:39:37;15.30;99.90
41262;DHT22;29629;52.532;13.352;2022-10-16T03:42:04;15.30;99.90
41262;DHT22;29629;52.532;13.352;2022-10-16T03:44:31;15.30;99.90
41262;DHT22;29629;52.532;13.352;2022-10-16T03:46:57;15.20;99.90
41262;DHT22;29629;52.532;13.352;2022-10-16T03:49:24;15.20;99.90
41262;DHT22;29629;52.532;13.352;2022-10-16T03:51:51;15.20;99.90
41262;DHT22;29629;52.532;13.352;2022-10-16T03:54:18;15.20;99.90
41262;DHT22;29629;52.532;13.352;2022-10-16T03:56:46;15.20;99.90
41262;DHT22;29629;52.532;13.352;2022-10-16T03:59:13;15.20;99.90
41262;DHT22;29629;52.532;13.352;2022-10-16T04:01:40;15.20;99.90
41262;DHT22;29629;52.532;13.352;2022-10-16T04:04:07;15.20;99.90
41262;DHT22;29629;52.532;13.352;2022-10-16T04:06:34;15.20;99.90
41262;DHT22;29629;52.532;13.352;2022-10-16T04:09:00;15.20;99.90
41262;DHT22;29629;52.532;13.352;2022-10-16T04:11:27;15.20;99.90
41262;DHT22;29629;52.532;13.352;2022-10-16T04:13:55;15.20;99.90
41262;DHT22;29629;52.532;13.352;2022-10-16T04:16:22;15.10;99.90
41262;DHT22;29629;52.532;13.352;2022-10-16T04:18:49;15.20;99.90
41262;DHT22;29629;52.532;13.352;2022-10-16T04:21:16;15.20;99.90
41262;DHT22;29629;52.532;13.352;2022-10-16T04:23:42;15.10;99.90
41262;DHT22;29629;52.532;13.352;2022-10-16T04:26:09;15.10;99.90
41262;DHT22;29629;52.532;13.352;2022-10-16T04:28:36;15.10;99.90
41262;DHT22;29629;52.532;13.352;2022-10-16T04:31:05;15.10;99.90
41262;DHT22;29629;52.532;13.352;2022-10-16T04:33:32;15.20;99.90
41262;DHT22;29629;52.532;13.352;2022-10-16T04:36:00;15.10;99.90
41262;DHT22;29629;52.532;13.352;2022-10-16T04:38:27;15.10;99.90
41262;DHT22;29629;52.532;13.352;2022-10-16T04:40:54;15.10;99.90
41262;DHT22;29629;52.532;13.352;2022-10-16T04:43:21;15.10;99.90
41262;DHT22;29629;52.532;13.352;2022-10-16T04:45:48;15.10;99.90
41262;DHT22;29629;52.532;13.352;2022-10-16T04:48:17;15.10;99.90
41262;DHT22;29629;52.532;13.352;2022-10-16T04:50:44;15.10;99.90
41262;DHT22;29629;52.532;13.352;2022-10-16T04:53:11;15.10;99.90
41262;DHT22;29629;52.532;13.352;2022-10-16T04:55:38;15.10;99.90
41262;DHT22;29629;52.532;13.352;2022-10-16T04:58:05;15.00;99.90
41262;DHT22;29629;52.532;13.352;2022-10-16T05:00:31;15.00;99.90
41262;DHT22;29629;52.532;13.352;2022-10-16T05:02:58;15.00;99.90
41262;DHT22;29629;52.532;13.352;2022-10-16T05:05:27;14.90;99.90
41262;DHT22;29629;52.532;13.352;2022-10-16T05:07:54;15.00;99.90
41262;DHT22;29629;52.532;13.352;2022-10-16T05:10:21;14.90;99.90
41262;DHT22;29629;52.532;13.352;2022-10-16T05:12:48;14.80;99.90
41262;DHT22;29629;52.532;13.352;2022-10-16T05:15:15;14.90;99.90
41262;DHT22;29629;52.532;13.352;2022-10-16T05:17:42;14.90;99.90
41262;DHT22;29629;52.532;13.352;2022-10-16T05:20:09;14.90;99.90
41262;DHT22;29629;52.532;13.352;2022-10-16T05:22:37;14.90;99.90
41262;DHT22;29629;52.532;13.352;2022-10-16T05:25:04;14.90;99.90
41262;DHT22;29629;52.532;13.352;2022-10-16T05:27:31;14.90;99.90
41262;DHT22;29629;52.532;13.352;2022-10-16T05:29:58;14.90;99.90
41262;DHT22;29629;52.532;13.352;2022-10-16T05:32:25;14.90;99.90
41262;DHT22;29629;52.532;13.352;2022-10-16T05:34:51;14.90;99.90
41262;DHT22;29629;52.532;13.352;2022-10-16T05:37:18;14.90;99.90
41262;DHT22;29629;52.532;13.352;2022-10-16T05:39:46;14.90;99.90
41262;DHT22;29629;52.532;13.352;2022-10-16T05:42:13;15.00;99.90
41262;DHT22;29629;52.532;13.352;2022-10-16T05:44:40;15.00;99.90
41262;DHT22;29629;52.532;13.352;2022-10-16T05:47:06;14.90;99.90
41262;DHT22;29629;52.532;13.352;2022-10-16T05:49:33;15.00;99.90
41262;DHT22;29629;52.532;13.352;2022-10-16T05:52:00;15.00;99.90
41262;DHT22;29629;52.532;13.352;2022-10-16T05:54:27;15.00;99.90
41262;DHT22;29629;52.532;13.352;2022-10-16T05:56:55;15.00;99.90
41262;DHT22;29629;52.532;13.352;2022-10-16T05:59:21;14.90;99.90
41262;DHT22;29629;52.532;13.352;2022-10-16T06:01:48;14.90;99.90
41262;DHT22;29629;52.532;13.352;2022-10-16T06:04:15;14.80;99.90
41262;DHT22;29629;52.532;13.352;2022-10-16T06:06:41;15.00;99.90
41262;DHT22;29629;52.532;13.352;2022-10-16T06:09:09;15.00;99.90
41262;DHT22;29629;52.532;13.352;2022-10-16T06:11:36;15.00;99.90
41262;DHT22;29629;52.532;13.352;2022-10-16T06:14:04;15.00;99.90
41262;DHT22;29629;52.532;13.352;2022-10-16T06:16:32;15.00;99.90
41262;DHT22;29629;52.532;13.352;2022-10-16T06:18:59;14.90;99.90
41262;DHT22;29629;52.532;13.352;2022-10-16T06:21:28;15.10;99.90
41262;DHT22;29629;52.532;13.352;2022-10-16T06:23:55;15.10;99.90
41262;DHT22;29629;52.532;13.352;2022-10-16T06:26:24;15.10;99.90
41262;DHT22;29629;52.532;13.352;2022-10-16T06:28:51;15.20;99.90
41262;DHT22;29629;52.532;13.352;2022-10-16T06:31:19;15.20;99.90
41262;DHT22;29629;52.532;13.352;2022-10-16T06:33:50;15.20;99.90
41262;DHT22;29629;52.532;13.352;2022-10-16T06:36:17;15.20;99.90
41262;DHT22;29629;52.532;13.352;2022-10-16T06:38:44;15.20;99.90
41262;DHT22;29629;52.532;13.352;2022-10-16T06:41:13;15.20;99.90
41262;DHT22;29629;52.532;13.352;2022-10-16T06:43:40;15.20;99.90
41262;DHT22;29629;52.532;13.352;2022-10-16T06:46:10;15.30;99.90
41262;DHT22;29629;52.532;13.352;2022-10-16T06:48:38;15.30;99.90
41262;DHT22;29629;52.532;13.352;2022-10-16T06:51:06;15.30;99.90
41262;DHT22;29629;52.532;13.352;2022-10-16T06:53:36;15.30;99.90
41262;DHT22;29629;52.532;13.352;2022-10-16T06:56:07;15.30;99.90
41262;DHT22;29629;52.532;13.352;2022-10-16T06:58:34;15.30;99.90
41262;DHT22;29629;52.532;13.352;2022-10-16T07:01:01;15.40;99.90
41262;DHT22;29629;52.532;13.352;2022-10-16T07:03:28;15.40;99.90
41262;DHT22;29629;52.532;13.352;2022-10-16T07:05:56;15.40;99.90
41262;DHT22;29629;52.532;13.352;2022-10-16T07:08:22;15.60;99.90
41262;DHT22;29629;52.532;13.352;2022-10-16T07:10:58;15.60;99.90
41262;DHT22;29629;52.532;13.352;2022-10-16T07:13:25;15.70;99.90
41262;DHT22;29629;52.532;13.352;2022-10-16T07:15:51;15.80;99.90
41262;DHT22;29629;52.532;13.352;2022-10-16T07:18:18;15.80;99.90
41262;DHT22;29629;52.532;13.352;2022-10-16T07:20:45;15.90;99.90
41262;DHT22;29629;52.532;13.352;2022-10-16T07:23:13;15.90;99.90
41262;DHT22;29629;52.532;13.352;2022-10-16T07:25:40;15.90;99.90
41262;DHT22;29629;52.532;13.352;2022-10-16T07:28:06;16.10;99.90
41262;DHT22;29629;52.532;13.352;2022-10-16T07:30:35;16.10;99.90
41262;DHT22;29629;52.532;13.352;2022-10-16T07:33:02;16.20;99.90
41262;DHT22;29629;52.532;13.352;2022-10-16T07:35:29;16.30;99.90
41262;DHT22;29629;52.532;13.352;2022-10-16T07:37:56;16.30;99.90
41262;DHT22;29629;52.532;13.352;2022-10-16T07:40:24;16.50;99.90
41262;DHT22;29629;52.532;13.352;2022-10-16T07:42:52;16.40;99.90
41262;DHT22;29629;52.532;13.352;2022-10-16T07:45:19;16.40;99.90
41262;DHT22;29629;52.532;13.352;2022-10-16T07:47:46;16.30;99.90
41262;DHT22;29629;52.532;13.352;2022-10-16T07:50:12;16.40;99.90
41262;DHT22;29629;52.532;13.352;2022-10-16T07:52:39;16.40;99.90
41262;DHT22;29629;52.532;13.352;2022-10-16T07:55:07;16.40;99.90
41262;DHT22;29629;52.532;13.352;2022-10-16T07:57:35;16.50;99.90
41262;DHT22;29629;52.532;13.352;2022-10-16T08:00:02;16.40;99.90
41262;DHT22;29629;52.532;13.352;2022-10-16T08:02:29;16.40;99.90
41262;DHT22;29629;52.532;13.352;2022-10-16T08:04:56;16.40;99.90
41262;DHT22;29629;52.532;13.352;2022-10-16T08:07:22;16.40;99.90
41262;DHT22;29629;52.532;13.352;2022-10-16T08:09:49;16.40;99.90
41262;DHT22;29629;52.532;13.352;2022-10-16T08:12:17;16.40;99.90
41262;DHT22;29629;52.532;13.352;2022-10-16T08:14:45;16.60;99.90
41262;DHT22;29629;52.532;13.352;2022-10-16T08:17:14;16.60;99.90
41262;DHT22;29629;52.532;13.352;2022-10-16T08:19:44;16.60;99.90
41262;DHT22;29629;52.532;13.352;2022-10-16T08:22:11;16.70;99.90
41262;DHT22;29629;52.532;13.352;2022-10-16T08:24:38;16.80;99.90
41262;DHT22;29629;52.532;13.352;2022-10-16T08:27:04;16.70;99.90
41262;DHT22;29629;52.532;13.352;2022-10-16T08:29:32;16.90;99.90
41262;DHT22;29629;52.532;13.352;2022-10-16T08:32:00;16.80;99.90
41262;DHT22;29629;52.532;13.352;2022-10-16T08:34:27;16.90;99.90
41262;DHT22;29629;52.532;13.352;2022-10-16T08:36:54;16.90;99.90
41262;DHT22;29629;52.532;13.352;2022-10-16T08:39:21;16.90;99.90
41262;DHT22;29629;52.532;13.352;2022-10-16T08:42:11;17.00;99.90
41262;DHT22;29629;52.532;13.352;2022-10-16T08:45:08;17.00;99.90
41262;DHT22;29629;52.532;13.352;2022-10-16T08:47:53;17.10;99.90
41262;DHT22;29629;52.532;13.352;2022-10-16T08:50:24;17.10;99.90
41262;DHT22;29629;52.532;13.352;2022-10-16T08:52:53;17.10;99.90
41262;DHT22;29629;52.532;13.352;2022-10-16T08:55:33;17.20;99.90
41262;DHT22;29629;52.532;13.352;2022-10-16T08:58:01;17.40;99.90
41262;DHT22;29629;52.532;13.352;2022-10-16T09:00:28;17.50;99.90
41262;DHT22;29629;52.532;13.352;2022-10-16T09:03:04;17.30;99.90
41262;DHT22;29629;52.532;13.352;2022-10-16T09:05:57;17.50;99.90
41262;DHT22;29629;52.532;13.352;2022-10-16T09:08:32;17.60;99.90
41262;DHT22;29629;52.532;13.352;2022-10-16T09:11:07;18.40;99.90
41262;DHT22;29629;52.532;13.352;2022-10-16T09:13:42;18.90;99.90
41262;DHT22;29629;52.532;13.352;2022-10-16T09:16:15;18.90;99.90
41262;DHT22;29629;52.532;13.352;2022-10-16T09:18:50;19.60;99.90
41262;DHT22;29629;52.532;13.352;2022-10-16T09:21:22;19.60;99.90
41262;DHT22;29629;52.532;13.352;2022-10-16T09:23:50;19.30;99.90
41262;DHT22;29629;52.532;13.352;2022-10-16T09:26:18;19.30;99.90
41262;DHT22;29629;52.532;13.352;2022-10-16T09:28:47;19.30;99.90
41262;DHT22;29629;52.532;13.352;2022-10-16T09:31:17;19.50;99.90
41262;DHT22;29629;52.532;13.352;2022-10-16T09:33:48;20.10;99.90
41262;DHT22;29629;52.532;13.352;2022-10-16T09:36:16;19.90;99.90
41262;DHT22;29629;52.532;13.352;2022-10-16T09:38:44;22.30;99.90
41262;DHT22;29629;52.532;13.352;2022-10-16T09:41:16;22.30;99.90
41262;DHT22;29629;52.532;13.352;2022-10-16T09:43:48;22.80;99.90
41262;DHT22;29629;52.532;13.352;2022-10-16T09:46:25;23.70;99.90
41262;DHT22;29629;52.532;13.352;2022-10-16T09:48:56;22.70;99.90
41262;DHT22;29629;52.532;13.352;2022-10-16T09:51:25;21.30;99.90
41262;DHT22;29629;52.532;13.352;2022-10-16T09:53:55;20.70;99.90
41262;DHT22;29629;52.532;13.352;2022-10-16T09:56:24;20.20;99.90
41262;DHT22;29629;52.532;13.352;2022-10-16T09:58:51;20.30;99.90
41262;DHT22;29629;52.532;13.352;2022-10-16T10:01:19;22.00;99.90
41262;DHT22;29629;52.532;13.352;2022-10-16T10:03:47;23.50;99.90
41262;DHT22;29629;52.532;13.352;2022-10-16T10:06:22;25.80;99.90
41262;DHT22;29629;52.532;13.352;2022-10-16T10:08:58;25.40;99.90
41262;DHT22;29629;52.532;13.352;2022-10-16T10:11:38;23.50;99.90
41262;DHT22;29629;52.532;13.352;2022-10-16T10:14:09;22.20;99.90
41262;DHT22;29629;52.532;13.352;2022-10-16T10:16:41;21.60;99.90
41262;DHT22;29629;52.532;13.352;2022-10-16T10:19:14;20.60;99.90
41262;DHT22;29629;52.532;13.352;2022-10-16T10:21:42;20.50;99.90
41262;DHT22;29629;52.532;13.352;2022-10-16T10:24:11;21.20;99.90
41262;DHT22;29629;52.532;13.352;2022-10-16T10:26:39;20.80;99.90
41262;DHT22;29629;52.532;13.352;2022-10-16T10:29:15;20.70;99.90
41262;DHT22;29629;52.532;13.352;2022-10-16T10:31:50;20.30;99.90
41262;DHT22;29629;52.532;13.352;2022-10-16T10:34:33;20.20;99.90
41262;DHT22;29629;52.532;13.352;2022-10-16T10:37:09;20.30;99.90
41262;DHT22;29629;52.532;13.352;2022-10-16T10:39:46;20.20;99.90
41262;DHT22;29629;52.532;13.352;2022-10-16T10:42:22;20.20;99.90
41262;DHT22;29629;52.532;13.352;2022-10-16T10:45:11;20.60;99.90
41262;DHT22;29629;52.532;13.352;2022-10-16T10:47:47;22.90;99.90
41262;DHT22;29629;52.532;13.352;2022-10-16T10:50:21;22.30;99.90
41262;DHT22;29629;52.532;13.352;2022-10-16T10:52:58;21.30;99.90
41262;DHT22;29629;52.532;13.352;2022-10-16T10:55:33;22.10;99.90
41262;DHT22;29629;52.532;13.352;2022-10-16T10:58:42;22.10;99.90
41262;DHT22;29629;52.532;13.352;2022-10-16T11:01:19;22.90;99.90
41262;DHT22;29629;52.532;13.352;2022-10-16T11:04:02;24.50;99.90
41262;DHT22;29629;52.532;13.352;2022-10-16T11:06:39;24.30;99.90
41262;DHT22;29629;52.532;13.352;2022-10-16T11:09:12;25.80;99.90
41262;DHT22;29629;52.532;13.352;2022-10-16T11:11:43;23.50;99.90
41262;DHT22;29629;52.532;13.352;2022-10-16T11:14:16;22.30;99.90
41262;DHT22;29629;52.532;13.352;2022-10-16T11:16:50;21.70;99.90
41262;DHT22;29629;52.532;13.352;2022-10-16T11:19:25;21.10;99.90
41262;DHT22;29629;52.532;13.352;2022-10-16T11:22:00;21.60;99.90
41262;DHT22;29629;52.532;13.352;2022-10-16T11:24:37;22.10;99.90
41262;DHT22;29629;52.532;13.352;2022-10-16T11:27:09;22.40;99.90
41262;DHT22;29629;52.532;13.352;2022-10-16T11:29:45;22.30;99.90
41262;DHT22;29629;52.532;13.352;2022-10-16T11:32:20;22.70;99.90
41262;DHT22;29629;52.532;13.352;2022-10-16T11:34:49;22.50;99.90
41262;DHT22;29629;52.532;13.352;2022-10-16T11:37:21;23.50;99.90
41262;DHT22;29629;52.532;13.352;2022-10-16T11:39:52;23.30;99.90
41262;DHT22;29629;52.532;13.352;2022-10-16T11:42:26;22.30;99.90
41262;DHT22;29629;52.532;13.352;2022-10-16T11:45:03;22.60;99.90
41262;DHT22;29629;52.532;13.352;2022-10-16T11:47:35;22.70;99.90
41262;DHT22;29629;52.532;13.352;2022-10-16T11:50:22;23.60;99.90
41262;DHT22;29629;52.532;13.352;2022-10-16T11:52:55;22.60;99.90
41262;DHT22;29629;52.532;13.352;2022-10-16T11:55:31;22.30;99.90
41262;DHT22;29629;52.532;13.352;2022-10-16T11:58:03;22.60;99.90
41262;DHT22;29629;52.532;13.352;2022-10-16T12:00:37;21.90;99.90
41262;DHT22;29629;52.532;13.352;2022-10-16T12:03:14;21.40;99.90
41262;DHT22;29629;52.532;13.352;2022-10-16T12:05:55;21.60;99.90
41262;DHT22;29629;52.532;13.352;2022-10-16T12:08:24;22.10;99.90
41262;DHT22;29629;52.532;13.352;2022-10-16T12:10:53;23.00;99.90
41262;DHT22;29629;52.532;13.352;2022-10-16T12:13:32;23.80;99.90
41262;DHT22;29629;52.532;13.352;2022-10-16T12:16:23;25.40;99.90
41262;DHT22;29629;52.532;13.352;2022-10-16T12:19:03;25.80;99.90
41262;DHT22;29629;52.532;13.352;2022-10-16T12:21:36;25.90;99.90
41262;DHT22;29629;52.532;13.352;2022-10-16T12:24:04;26.40;99.90
41262;DHT22;29629;52.532;13.352;2022-10-16T12:26:34;27.00;99.90
41262;DHT22;29629;52.532;13.352;2022-10-16T12:29:14;26.70;99.90
41262;DHT22;29629;52.532;13.352;2022-10-16T12:31:45;25.20;99.90
41262;DHT22;29629;52.532;13.352;2022-10-16T12:34:26;25.30;99.90
41262;DHT22;29629;52.532;13.352;2022-10-16T12:36:54;24.60;99.90
41262;DHT22;29629;52.532;13.352;2022-10-16T12:39:22;25.80;99.90
41262;DHT22;29629;52.532;13.352;2022-10-16T12:42:02;24.90;99.90
41262;DHT22;29629;52.532;13.352;2022-10-16T12:44:35;24.80;99.90
41262;DHT22;29629;52.532;13.352;2022-10-16T12:47:02;25.10;99.90
41262;DHT22;29629;52.532;13.352;2022-10-16T12:49:31;24.70;99.90
41262;DHT22;29629;52.532;13.352;2022-10-16T12:51:59;24.50;99.90
41262;DHT22;29629;52.532;13.352;2022-10-16T12:54:29;25.10;99.90
41262;DHT22;29629;52.532;13.352;2022-10-16T12:57:12;25.20;99.90
41262;DHT22;29629;52.532;13.352;2022-10-16T12:59:51;25.10;99.90
41262;DHT22;29629;52.532;13.352;2022-10-16T13:02:39;24.60;99.90
41262;DHT22;29629;52.532;13.352;2022-10-16T13:05:23;24.70;99.90
41262;DHT22;29629;52.532;13.352;2022-10-16T13:07:59;24.50;99.90
41262;DHT22;29629;52.532;13.352;2022-10-16T13:10:32;23.70;99.90
41262;DHT22;29629;52.532;13.352;2022-10-16T13:13:14;23.30;99.90
41262;DHT22;29629;52.532;13.352;2022-10-16T13:15:56;22.70;99.90
41262;DHT22;29629;52.532;13.352;2022-10-16T13:18:32;22.80;99.90
41262;DHT22;29629;52.532;13.352;2022-10-16T13:21:19;22.60;99.90
41262;DHT22;29629;52.532;13.352;2022-10-16T13:23:52;21.90;99.90
41262;DHT22;29629;52.532;13.352;2022-10-16T13:26:28;22.20;99.90
41262;DHT22;29629;52.532;13.352;2022-10-16T13:29:00;21.90;99.90
41262;DHT22;29629;52.532;13.352;2022-10-16T13:31:28;21.80;99.90
41262;DHT22;29629;52.532;13.352;2022-10-16T13:33:57;21.80;99.90
41262;DHT22;29629;52.532;13.352;2022-10-16T13:36:26;21.50;99.90
41262;DHT22;29629;52.532;13.352;2022-10-16T13:39:06;21.70;99.90
41262;DHT22;29629;52.532;13.352;2022-10-16T13:41:36;21.80;99.90
41262;DHT22;29629;52.532;13.352;2022-10-16T13:44:07;21.70;99.90
41262;DHT22;29629;52.532;13.352;2022-10-16T13:46:35;21.60;99.90
41262;DHT22;29629;52.532;13.352;2022-10-16T13:49:03;21.60;99.90
41262;DHT22;29629;52.532;13.352;2022-10-16T13:51:32;21.40;99.90
41262;DHT22;29629;52.532;13.352;2022-10-16T13:53:59;21.40;99.90
41262;DHT22;29629;52.532;13.352;2022-10-16T13:56:28;21.10;99.90
41262;DHT22;29629;52.532;13.352;2022-10-16T13:58:58;21.10;99.90
41262;DHT22;29629;52.532;13.352;2022-10-16T14:01:28;20.90;99.90
41262;DHT22;29629;52.532;13.352;2022-10-16T14:04:02;20.80;99.90
41262;DHT22;29629;52.532;13.352;2022-10-16T14:06:29;20.60;99.90
41262;DHT22;29629;52.532;13.352;2022-10-16T14:08:59;20.50;99.90
41262;DHT22;29629;52.532;13.352;2022-10-16T14:11:27;20.60;99.90
41262;DHT22;29629;52.532;13.352;2022-10-16T14:13:55;20.50;99.90
41262;DHT22;29629;52.532;13.352;2022-10-16T14:16:23;20.50;99.90
41262;DHT22;29629;52.532;13.352;2022-10-16T14:18:56;20.50;99.90
41262;DHT22;29629;52.532;13.352;2022-10-16T14:21:24;20.40;99.90
41262;DHT22;29629;52.532;13.352;2022-10-16T14:23:52;20.30;99.90
41262;DHT22;29629;52.532;13.352;2022-10-16T14:26:22;20.20;99.90
41262;DHT22;29629;52.532;13.352;2022-10-16T14:29:03;20.20;99.90
41262;DHT22;29629;52.532;13.352;2022-10-16T14:31:32;20.20;99.90
41262;DHT22;29629;52.532;13.352;2022-10-16T14:34:03;20.20;99.90
41262;DHT22;29629;52.532;13.352;2022-10-16T14:36:30;20.10;99.90
41262;DHT22;29629;52.532;13.352;2022-10-16T14:39:00;20.10;99.90
41262;DHT22;29629;52.532;13.352;2022-10-16T14:41:28;20.10;99.90
41262;DHT22;29629;52.532;13.352;2022-10-16T14:43:56;20.00;99.90
41262;DHT22;29629;52.532;13.352;2022-10-16T14:46:30;20.10;99.90
41262;DHT22;29629;52.532;13.352;2022-10-16T14:49:03;20.00;99.90
41262;DHT22;29629;52.532;13.352;2022-10-16T14:51:31;19.90;99.90
41262;DHT22;29629;52.532;13.352;2022-10-16T14:53:57;19.90;99.90
41262;DHT22;29629;52.532;13.352;2022-10-16T14:56:27;19.90;99.90
41262;DHT22;29629;52.532;13.352;2022-10-16T14:58:55;19.90;99.90
41262;DHT22;29629;52.532;13.352;2022-10-16T15:01:22;19.80;99.90
41262;DHT22;29629;52.532;13.352;2022-10-16T15:03:49;19.90;99.90
41262;DHT22;29629;52.532;13.352;2022-10-16T15:06:19;19.80;99.90
41262;DHT22;29629;52.532;13.352;2022-10-16T15:08:45;19.80;99.90
41262;DHT22;29629;52.532;13.352;2022-10-16T15:11:14;19.70;99.90
41262;DHT22;29629;52.532;13.352;2022-10-16T15:13:41;19.70;99.90
41262;DHT22;29629;52.532;13.352;2022-10-16T15:16:10;19.60;99.90
41262;DHT22;29629;52.532;13.352;2022-10-16T15:18:37;19.50;99.90
41262;DHT22;29629;52.532;13.352;2022-10-16T15:21:04;19.50;99.90
41262;DHT22;29629;52.532;13.352;2022-10-16T15:23:33;19.50;99.90
41262;DHT22;29629;52.532;13.352;2022-10-16T15:26:00;19.40;99.90
41262;DHT22;29629;52.532;13.352;2022-10-16T15:28:27;19.40;99.90
41262;DHT22;29629;52.532;13.352;2022-10-16T15:30:55;19.40;99.90
41262;DHT22;29629;52.532;13.352;2022-10-16T15:33:24;19.30;99.90